Main page
METAR-TAF:

METAR-TAF

Airports :

Griffiss International Airport

Rome, New York, United States

latitude: 43-14N, longitude: 075-24W, elevation: 505 ft

Current weather observation

The report was made 16 minutes ago, at 21:53 UTC
Wind 14 mph from the North
Temperature 48°F
Humidity 40%
Pressure 29.83 in. Hg
Visibility: 10 miles
Clear sky

METAR: KRME 012153Z 35012KT 10SM CLR 09/M04 A2983 RMK AO2 SLP102 T00941044

Time: 18:09 (22:09 UTC)

Forecast

The report was made 4 hours and 41 minutes ago, at 17:28 UTC
Forecast valid from 01 at 18 UTC to 02 at 18 UTC
Wind 6 mph from the North/Northwest
Visibility: 6 miles
Scattered clouds at a height of 4000 ft
From 02 at 0800 UTC
Wind 3 mph from variable directions
Visibility: 6 miles
Broken clouds at a height of 2500 ft
From 02 at 1300 UTC
Wind 7 mph from the Northwest
Visibility: 6 miles
Broken clouds at a height of 2200 ft

TAF: KRME 011728Z 0118/0218 33005KT P6SM SCT040 FM020800 VRB03KT P6SM BKN025 FM021300 32006KT P6SM BKN022

Weather observations and forecasts of more than 4000 airports (METAR and TAF reports).

The available stations are represented by yellow and red dots on the map.

Hover mouse over dot to see the name of the station.

Then click to see weather observations and forecasts.

To change the map : click on the green buttons with a black cross to zoom in, on the green button with a dash to zoom out, or on the green arrows for adjacent maps.


METAR-TAF: